sensor_id;sensor_type;location;lat;lon;timestamp;P1;P2;P0
72854;PMS7003;60991;51.278;22.550;2023-04-15T00:00:48;18.50;17.00;11.25
72854;PMS7003;60991;51.278;22.550;2023-04-15T00:02:19;17.67;17.67;12.00
72854;PMS7003;60991;51.278;22.550;2023-04-15T00:03:52;25.67;21.33;15.00
72854;PMS7003;60991;51.278;22.550;2023-04-15T00:05:23;25.25;21.75;15.75
72854;PMS7003;60991;51.278;22.550;2023-04-15T00:06:54;19.50;18.75;11.25
72854;PMS7003;60991;51.278;22.550;2023-04-15T00:08:24;28.25;19.50;12.25
72854;PMS7003;60991;51.278;22.550;2023-04-15T00:09:54;24.00;22.50;14.25
72854;PMS7003;60991;51.278;22.550;2023-04-15T00:11:24;21.75;19.50;14.00
72854;PMS7003;60991;51.278;22.550;2023-04-15T00:12:55;24.75;21.00;15.00
72854;PMS7003;60991;51.278;22.550;2023-04-15T00:14:25;25.00;22.33;13.33
72854;PMS7003;60991;51.278;22.550;2023-04-15T00:15:55;21.00;19.00;10.33
72854;PMS7003;60991;51.278;22.550;2023-04-15T00:17:25;30.00;23.00;14.33
72854;PMS7003;60991;51.278;22.550;2023-04-15T00:18:55;32.75;29.25;17.00
72854;PMS7003;60991;51.278;22.550;2023-04-15T00:20:26;20.75;19.25;15.75
72854;PMS7003;60991;51.278;22.550;2023-04-15T00:21:56;29.00;19.00;13.75
72854;PMS7003;60991;51.278;22.550;2023-04-15T00:23:26;33.00;23.25;15.00
72854;PMS7003;60991;51.278;22.550;2023-04-15T00:24:57;29.50;24.25;14.00
72854;PMS7003;60991;51.278;22.550;2023-04-15T00:26:27;25.50;24.00;16.00
72854;PMS7003;60991;51.278;22.550;2023-04-15T00:27:57;25.00;21.00;15.33
72854;PMS7003;60991;51.278;22.550;2023-04-15T00:29:27;22.33;18.33;14.00
72854;PMS7003;60991;51.278;22.550;2023-04-15T00:30:58;24.75;23.75;13.50
72854;PMS7003;60991;51.278;22.550;2023-04-15T00:32:28;24.50;23.50;15.00
72854;PMS7003;60991;51.278;22.550;2023-04-15T00:33:58;20.33;19.33;12.67
72854;PMS7003;60991;51.278;22.550;2023-04-15T00:35:28;32.75;25.75;15.50
72854;PMS7003;60991;51.278;22.550;2023-04-15T00:36:59;24.00;21.75;15.00
72854;PMS7003;60991;51.278;22.550;2023-04-15T00:38:29;24.25;19.25;12.25
72854;PMS7003;60991;51.278;22.550;2023-04-15T00:39:59;28.00;20.00;15.00
72854;PMS7003;60991;51.278;22.550;2023-04-15T00:41:30;27.75;25.25;15.50
72854;PMS7003;60991;51.278;22.550;2023-04-15T00:43:00;23.33;18.00;12.33
72854;PMS7003;60991;51.278;22.550;2023-04-15T00:44:31;25.50;22.50;15.25
72854;PMS7003;60991;51.278;22.550;2023-04-15T00:46:01;23.00;20.50;15.00
72854;PMS7003;60991;51.278;22.550;2023-04-15T00:47:34;17.50;17.25;13.75
72854;PMS7003;60991;51.278;22.550;2023-04-15T00:49:05;22.25;21.00;14.75
72854;PMS7003;60991;51.278;22.550;2023-04-15T00:50:36;24.50;19.00;13.50
72854;PMS7003;60991;51.278;22.550;2023-04-15T00:52:06;25.00;18.25;11.50
72854;PMS7003;60991;51.278;22.550;2023-04-15T00:53:36;27.00;23.25;16.00
72854;PMS7003;60991;51.278;22.550;2023-04-15T00:55:07;22.00;21.50;14.75
72854;PMS7003;60991;51.278;22.550;2023-04-15T00:56:38;22.75;18.75;14.25
72854;PMS7003;60991;51.278;22.550;2023-04-15T00:58:08;27.25;24.25;15.50
72854;PMS7003;60991;51.278;22.550;2023-04-15T00:59:38;29.25;24.00;17.50
72854;PMS7003;60991;51.278;22.550;2023-04-15T01:01:08;29.25;22.50;16.25
72854;PMS7003;60991;51.278;22.550;2023-04-15T01:02:39;31.75;27.50;14.25
72854;PMS7003;60991;51.278;22.550;2023-04-15T01:04:09;24.75;19.00;11.00
72854;PMS7003;60991;51.278;22.550;2023-04-15T01:05:39;26.50;22.50;14.25
72854;PMS7003;60991;51.278;22.550;2023-04-15T01:07:10;24.00;21.00;16.00
72854;PMS7003;60991;51.278;22.550;2023-04-15T01:08:40;27.67;22.00;14.00
72854;PMS7003;60991;51.278;22.550;2023-04-15T01:10:10;28.00;23.00;15.25
72854;PMS7003;60991;51.278;22.550;2023-04-15T01:11:40;21.25;19.75;14.75
72854;PMS7003;60991;51.278;22.550;2023-04-15T01:13:11;23.00;18.50;12.50
72854;PMS7003;60991;51.278;22.550;2023-04-15T01:14:41;29.75;24.50;15.00
72854;PMS7003;60991;51.278;22.550;2023-04-15T01:16:11;19.00;15.75;11.00
72854;PMS7003;60991;51.278;22.550;2023-04-15T01:17:42;22.50;17.00;11.75
72854;PMS7003;60991;51.278;22.550;2023-04-15T01:19:13;25.75;22.50;15.75
72854;PMS7003;60991;51.278;22.550;2023-04-15T01:20:46;26.75;24.00;15.00
72854;PMS7003;60991;51.278;22.550;2023-04-15T01:22:16;26.25;21.75;14.50
72854;PMS7003;60991;51.278;22.550;2023-04-15T01:23:46;23.25;16.75;10.50
72854;PMS7003;60991;51.278;22.550;2023-04-15T01:25:17;24.25;20.50;11.75
72854;PMS7003;60991;51.278;22.550;2023-04-15T01:26:49;23.75;21.75;12.25
72854;PMS7003;60991;51.278;22.550;2023-04-15T01:28:19;23.50;18.50;13.50
72854;PMS7003;60991;51.278;22.550;2023-04-15T01:29:49;27.50;19.00;12.25
72854;PMS7003;60991;51.278;22.550;2023-04-15T01:31:19;21.25;18.25;12.00
72854;PMS7003;60991;51.278;22.550;2023-04-15T01:32:50;25.25;20.00;13.50
72854;PMS7003;60991;51.278;22.550;2023-04-15T01:34:20;24.25;18.25;12.00
72854;PMS7003;60991;51.278;22.550;2023-04-15T01:35:51;21.25;21.25;14.00
72854;PMS7003;60991;51.278;22.550;2023-04-15T01:37:21;25.00;20.00;11.75
72854;PMS7003;60991;51.278;22.550;2023-04-15T01:38:51;23.00;20.50;11.75
72854;PMS7003;60991;51.278;22.550;2023-04-15T01:40:21;16.00;11.00;7.00
72854;PMS7003;60991;51.278;22.550;2023-04-15T01:41:52;25.33;21.67;14.00
72854;PMS7003;60991;51.278;22.550;2023-04-15T01:43:22;25.33;22.00;14.00
72854;PMS7003;60991;51.278;22.550;2023-04-15T01:44:52;21.00;17.00;11.25
72854;PMS7003;60991;51.278;22.550;2023-04-15T01:46:22;26.50;23.25;13.75
72854;PMS7003;60991;51.278;22.550;2023-04-15T01:47:52;26.75;22.00;12.25
72854;PMS7003;60991;51.278;22.550;2023-04-15T01:49:23;24.25;21.75;15.00
72854;PMS7003;60991;51.278;22.550;2023-04-15T01:50:53;26.25;24.50;15.00
72854;PMS7003;60991;51.278;22.550;2023-04-15T01:52:24;29.25;22.25;12.75
72854;PMS7003;60991;51.278;22.550;2023-04-15T01:53:54;19.50;15.50;11.00
72854;PMS7003;60991;51.278;22.550;2023-04-15T01:55:24;19.50;15.25;12.25
72854;PMS7003;60991;51.278;22.550;2023-04-15T01:56:54;22.00;20.25;13.75
72854;PMS7003;60991;51.278;22.550;2023-04-15T01:58:25;33.67;20.33;14.33
72854;PMS7003;60991;51.278;22.550;2023-04-15T01:59:55;27.67;23.00;14.00
72854;PMS7003;60991;51.278;22.550;2023-04-15T02:01:25;27.00;23.25;14.75
72854;PMS7003;60991;51.278;22.550;2023-04-15T02:02:55;25.75;23.00;15.25
72854;PMS7003;60991;51.278;22.550;2023-04-15T02:04:25;25.33;20.00;10.33
72854;PMS7003;60991;51.278;22.550;2023-04-15T02:05:56;24.25;22.25;15.50
72854;PMS7003;60991;51.278;22.550;2023-04-15T02:07:26;26.50;20.00;12.25
72854;PMS7003;60991;51.278;22.550;2023-04-15T02:08:56;22.33;19.67;15.00
72854;PMS7003;60991;51.278;22.550;2023-04-15T02:10:26;25.25;23.25;15.00
72854;PMS7003;60991;51.278;22.550;2023-04-15T02:11:57;24.25;21.75;14.75
72854;PMS7003;60991;51.278;22.550;2023-04-15T02:13:27;29.67;21.33;14.67
72854;PMS7003;60991;51.278;22.550;2023-04-15T02:14:57;27.67;22.33;14.67
72854;PMS7003;60991;51.278;22.550;2023-04-15T02:16:27;21.25;21.25;15.00
72854;PMS7003;60991;51.278;22.550;2023-04-15T02:17:57;20.67;18.33;11.33
72854;PMS7003;60991;51.278;22.550;2023-04-15T02:19:28;19.33;17.00;12.33
72854;PMS7003;60991;51.278;22.550;2023-04-15T02:20:58;22.33;21.00;14.00
72854;PMS7003;60991;51.278;22.550;2023-04-15T02:22:28;26.00;21.75;15.00
72854;PMS7003;60991;51.278;22.550;2023-04-15T02:23:58;17.67;17.67;13.33
72854;PMS7003;60991;51.278;22.550;2023-04-15T02:25:29;24.67;17.00;12.00
72854;PMS7003;60991;51.278;22.550;2023-04-15T02:26:59;22.00;19.33;9.00
72854;PMS7003;60991;51.278;22.550;2023-04-15T02:28:29;21.00;15.75;10.75
72854;PMS7003;60991;51.278;22.550;2023-04-15T02:29:59;18.00;18.00;12.00
72854;PMS7003;60991;51.278;22.550;2023-04-15T02:31:29;21.50;20.50;12.50
72854;PMS7003;60991;51.278;22.550;2023-04-15T02:33:00;20.67;17.00;10.33
72854;PMS7003;60991;51.278;22.550;2023-04-15T02:34:30;18.50;18.25;14.00
72854;PMS7003;60991;51.278;22.550;2023-04-15T02:36:00;18.67;17.00;12.33
72854;PMS7003;60991;51.278;22.550;2023-04-15T02:37:31;20.25;15.50;11.00
72854;PMS7003;60991;51.278;22.550;2023-04-15T02:39:01;18.25;18.25;11.75
72854;PMS7003;60991;51.278;22.550;2023-04-15T02:40:32;22.00;20.50;14.00
72854;PMS7003;60991;51.278;22.550;2023-04-15T02:42:02;17.00;13.67;8.00
72854;PMS7003;60991;51.278;22.550;2023-04-15T02:43:33;15.75;15.50;10.50
72854;PMS7003;60991;51.278;22.550;2023-04-15T02:45:03;18.33;15.00;11.00
72854;PMS7003;60991;51.278;22.550;2023-04-15T02:46:34;21.50;17.25;13.00
72854;PMS7003;60991;51.278;22.550;2023-04-15T02:48:04;18.33;17.00;12.33
72854;PMS7003;60991;51.278;22.550;2023-04-15T02:49:35;18.33;18.33;12.00
72854;PMS7003;60991;51.278;22.550;2023-04-15T02:51:14;15.33;13.67;8.67
72854;PMS7003;60991;51.278;22.550;2023-04-15T02:52:49;23.00;17.00;12.25
72854;PMS7003;60991;51.278;22.550;2023-04-15T02:54:19;19.50;15.75;11.00
72854;PMS7003;60991;51.278;22.550;2023-04-15T02:55:50;21.00;19.50;14.00
72854;PMS7003;60991;51.278;22.550;2023-04-15T02:57:20;17.00;16.50;10.75
72854;PMS7003;60991;51.278;22.550;2023-04-15T02:58:50;19.00;16.00;10.00
72854;PMS7003;60991;51.278;22.550;2023-04-15T03:00:21;14.67;13.33;9.33
72854;PMS7003;60991;51.278;22.550;2023-04-15T03:01:51;16.50;15.00;11.00
72854;PMS7003;60991;51.278;22.550;2023-04-15T03:03:21;17.67;16.67;12.00
72854;PMS7003;60991;51.278;22.550;2023-04-15T03:04:51;16.00;13.33;10.00
72854;PMS7003;60991;51.278;22.550;2023-04-15T03:06:21;17.67;15.00;12.00
72854;PMS7003;60991;51.278;22.550;2023-04-15T03:07:52;19.25;19.25;12.25
72854;PMS7003;60991;51.278;22.550;2023-04-15T03:09:22;15.50;14.25;11.00
72854;PMS7003;60991;51.278;22.550;2023-04-15T03:10:53;21.50;18.00;13.50
72854;PMS7003;60991;51.278;22.550;2023-04-15T03:12:23;20.50;16.00;12.00
72854;PMS7003;60991;51.278;22.550;2023-04-15T03:13:53;15.00;15.00;11.00
72854;PMS7003;60991;51.278;22.550;2023-04-15T03:15:23;16.50;15.50;10.25
72854;PMS7003;60991;51.278;22.550;2023-04-15T03:16:53;21.33;18.00;14.00
72854;PMS7003;60991;51.278;22.550;2023-04-15T03:18:24;15.67;14.00;10.33
72854;PMS7003;60991;51.278;22.550;2023-04-15T03:19:54;20.50;16.00;12.25
72854;PMS7003;60991;51.278;22.550;2023-04-15T03:21:24;24.33;20.00;11.00
72854;PMS7003;60991;51.278;22.550;2023-04-15T03:22:54;18.75;15.75;11.00
72854;PMS7003;60991;51.278;22.550;2023-04-15T03:24:25;19.00;14.67;11.00
72854;PMS7003;60991;51.278;22.550;2023-04-15T03:25:55;16.00;16.00;10.00
72854;PMS7003;60991;51.278;22.550;2023-04-15T03:27:25;16.00;16.00;11.00
72854;PMS7003;60991;51.278;22.550;2023-04-15T03:28:56;16.00;15.50;11.25
72854;PMS7003;60991;51.278;22.550;2023-04-15T03:30:26;21.50;17.50;11.75
72854;PMS7003;60991;51.278;22.550;2023-04-15T03:31:56;18.33;15.67;11.00
72854;PMS7003;60991;51.278;22.550;2023-04-15T03:33:26;15.33;13.33;10.67
72854;PMS7003;60991;51.278;22.550;2023-04-15T03:34:57;17.33;14.00;10.33
72854;PMS7003;60991;51.278;22.550;2023-04-15T03:36:30;15.75;14.25;10.50
72854;PMS7003;60991;51.278;22.550;2023-04-15T03:38:00;21.75;15.25;11.00
72854;PMS7003;60991;51.278;22.550;2023-04-15T03:39:30;13.33;10.00;9.00
72854;PMS7003;60991;51.278;22.550;2023-04-15T03:41:01;21.25;17.00;11.25
72854;PMS7003;60991;51.278;22.550;2023-04-15T03:42:31;17.25;14.75;11.00
72854;PMS7003;60991;51.278;22.550;2023-04-15T03:44:01;14.67;11.33;7.67
72854;PMS7003;60991;51.278;22.550;2023-04-15T03:45:31;18.25;16.50;10.75
72854;PMS7003;60991;51.278;22.550;2023-04-15T03:47:02;21.50;16.75;11.00
72854;PMS7003;60991;51.278;22.550;2023-04-15T03:48:32;18.75;15.50;10.50
72854;PMS7003;60991;51.278;22.550;2023-04-15T03:50:02;18.25;16.25;10.25
72854;PMS7003;60991;51.278;22.550;2023-04-15T03:51:33;18.50;14.25;9.50
72854;PMS7003;60991;51.278;22.550;2023-04-15T03:53:03;17.50;14.00;10.00
72854;PMS7003;60991;51.278;22.550;2023-04-15T03:54:33;13.33;13.33;10.00
72854;PMS7003;60991;51.278;22.550;2023-04-15T03:56:04;13.75;11.00;10.00
72854;PMS7003;60991;51.278;22.550;2023-04-15T03:57:34;21.50;17.75;11.00
72854;PMS7003;60991;51.278;22.550;2023-04-15T03:59:04;20.75;17.75;13.75
72854;PMS7003;60991;51.278;22.550;2023-04-15T04:00:34;12.00;11.33;8.00
72854;PMS7003;60991;51.278;22.550;2023-04-15T04:02:05;17.00;10.67;7.67
72854;PMS7003;60991;51.278;22.550;2023-04-15T04:03:35;14.50;12.00;8.75
72854;PMS7003;60991;51.278;22.550;2023-04-15T04:05:05;15.67;13.00;10.00
72854;PMS7003;60991;51.278;22.550;2023-04-15T04:06:35;11.75;11.75;10.25
72854;PMS7003;60991;51.278;22.550;2023-04-15T04:08:06;13.50;13.50;9.25
72854;PMS7003;60991;51.278;22.550;2023-04-15T04:09:36;12.25;12.25;8.25
72854;PMS7003;60991;51.278;22.550;2023-04-15T04:11:06;13.75;9.75;8.00
72854;PMS7003;60991;51.278;22.550;2023-04-15T04:12:36;12.50;12.50;9.50
72854;PMS7003;60991;51.278;22.550;2023-04-15T04:14:07;16.67;13.00;9.00
72854;PMS7003;60991;51.278;22.550;2023-04-15T04:15:37;14.67;11.67;9.00
72854;PMS7003;60991;51.278;22.550;2023-04-15T04:17:07;12.50;11.50;9.50
72854;PMS7003;60991;51.278;22.550;2023-04-15T04:18:37;13.50;11.75;9.50
72854;PMS7003;60991;51.278;22.550;2023-04-15T04:20:08;11.50;9.50;6.00
72854;PMS7003;60991;51.278;22.550;2023-04-15T04:21:38;15.75;12.75;9.25
72854;PMS7003;60991;51.278;22.550;2023-04-15T04:23:08;14.75;14.00;9.75
72854;PMS7003;60991;51.278;22.550;2023-04-15T04:24:39;9.25;9.25;8.25
72854;PMS7003;60991;51.278;22.550;2023-04-15T04:26:09;13.75;13.75;9.75
72854;PMS7003;60991;51.278;22.550;2023-04-15T04:27:39;16.00;14.33;9.00
72854;PMS7003;60991;51.278;22.550;2023-04-15T04:29:09;15.00;14.50;10.00
72854;PMS7003;60991;51.278;22.550;2023-04-15T04:30:39;15.75;13.50;10.00
72854;PMS7003;60991;51.278;22.550;2023-04-15T04:32:10;10.25;10.25;8.00
72854;PMS7003;60991;51.278;22.550;2023-04-15T04:33:40;14.25;14.00;9.75
72854;PMS7003;60991;51.278;22.550;2023-04-15T04:35:10;15.00;12.50;9.25
72854;PMS7003;60991;51.278;22.550;2023-04-15T04:36:40;13.67;11.00;8.00
72854;PMS7003;60991;51.278;22.550;2023-04-15T04:38:11;12.75;11.25;9.75
72854;PMS7003;60991;51.278;22.550;2023-04-15T04:39:41;11.25;10.25;7.75
72854;PMS7003;60991;51.278;22.550;2023-04-15T04:41:11;20.00;11.00;7.33
72854;PMS7003;60991;51.278;22.550;2023-04-15T04:42:41;11.50;11.50;9.00
72854;PMS7003;60991;51.278;22.550;2023-04-15T04:44:11;14.25;14.00;9.00
72854;PMS7003;60991;51.278;22.550;2023-04-15T04:45:42;10.33;9.00;7.33
72854;PMS7003;60991;51.278;22.550;2023-04-15T04:47:12;16.00;13.50;10.00
72854;PMS7003;60991;51.278;22.550;2023-04-15T04:48:42;11.00;10.50;8.00
72854;PMS7003;60991;51.278;22.550;2023-04-15T04:50:12;11.00;9.00;8.00
72854;PMS7003;60991;51.278;22.550;2023-04-15T04:51:43;16.75;14.75;9.75
72854;PMS7003;60991;51.278;22.550;2023-04-15T04:53:13;12.00;12.00;9.00
72854;PMS7003;60991;51.278;22.550;2023-04-15T04:54:43;13.50;12.00;9.75
72854;PMS7003;60991;51.278;22.550;2023-04-15T04:56:14;10.25;10.00;8.25
72854;PMS7003;60991;51.278;22.550;2023-04-15T04:57:44;14.75;14.25;9.00
72854;PMS7003;60991;51.278;22.550;2023-04-15T04:59:14;14.00;11.00;8.00
72854;PMS7003;60991;51.278;22.550;2023-04-15T05:00:44;13.25;11.00;7.25
72854;PMS7003;60991;51.278;22.550;2023-04-15T05:02:14;9.75;9.25;7.25
72854;PMS7003;60991;51.278;22.550;2023-04-15T05:03:45;14.75;10.00;8.00
72854;PMS7003;60991;51.278;22.550;2023-04-15T05:05:15;15.25;12.75;9.00
72854;PMS7003;60991;51.278;22.550;2023-04-15T05:06:45;13.00;12.25;10.00
72854;PMS7003;60991;51.278;22.550;2023-04-15T05:08:15;16.75;11.75;9.00
72854;PMS7003;60991;51.278;22.550;2023-04-15T05:09:46;12.25;11.00;9.00
72854;PMS7003;60991;51.278;22.550;2023-04-15T05:11:16;16.50;14.25;10.00
72854;PMS7003;60991;51.278;22.550;2023-04-15T05:12:46;13.50;12.00;7.75
72854;PMS7003;60991;51.278;22.550;2023-04-15T05:14:16;9.00;7.25;3.75
72854;PMS7003;60991;51.278;22.550;2023-04-15T05:15:47;19.00;15.00;9.33
72854;PMS7003;60991;51.278;22.550;2023-04-15T05:17:17;12.50;12.50;7.25
72854;PMS7003;60991;51.278;22.550;2023-04-15T05:18:47;11.00;10.25;8.50
72854;PMS7003;60991;51.278;22.550;2023-04-15T05:20:17;14.00;12.00;8.50
72854;PMS7003;60991;51.278;22.550;2023-04-15T05:21:47;12.25;10.00;9.00
72854;PMS7003;60991;51.278;22.550;2023-04-15T05:23:18;12.25;12.25;8.75
72854;PMS7003;60991;51.278;22.550;2023-04-15T05:24:48;12.50;10.75;9.25
72854;PMS7003;60991;51.278;22.550;2023-04-15T05:26:18;16.50;13.75;11.00
72854;PMS7003;60991;51.278;22.550;2023-04-15T05:27:48;13.50;13.25;8.75
72854;PMS7003;60991;51.278;22.550;2023-04-15T05:29:18;15.00;15.00;9.00
72854;PMS7003;60991;51.278;22.550;2023-04-15T05:30:49;16.50;14.25;10.00
72854;PMS7003;60991;51.278;22.550;2023-04-15T05:32:19;21.00;16.00;11.50
72854;PMS7003;60991;51.278;22.550;2023-04-15T05:33:49;13.50;10.50;9.00
72854;PMS7003;60991;51.278;22.550;2023-04-15T05:35:20;15.50;11.50;8.50
72854;PMS7003;60991;51.278;22.550;2023-04-15T05:36:50;16.25;13.50;10.75
72854;PMS7003;60991;51.278;22.550;2023-04-15T05:38:21;15.00;13.00;10.00
72854;PMS7003;60991;51.278;22.550;2023-04-15T05:39:51;17.25;13.50;9.00
72854;PMS7003;60991;51.278;22.550;2023-04-15T05:41:21;19.33;14.67;10.00
72854;PMS7003;60991;51.278;22.550;2023-04-15T05:42:51;12.75;11.00;9.75
72854;PMS7003;60991;51.278;22.550;2023-04-15T05:44:21;15.25;12.75;9.00
72854;PMS7003;60991;51.278;22.550;2023-04-15T05:45:52;10.50;10.25;8.00
72854;PMS7003;60991;51.278;22.550;2023-04-15T05:47:22;15.33;15.33;9.67
72854;PMS7003;60991;51.278;22.550;2023-04-15T05:48:52;17.75;16.50;11.00
72854;PMS7003;60991;51.278;22.550;2023-04-15T05:50:22;11.75;11.00;9.75
72854;PMS7003;60991;51.278;22.550;2023-04-15T05:51:52;14.00;10.50;8.75
72854;PMS7003;60991;51.278;22.550;2023-04-15T05:53:23;14.50;11.50;9.00
72854;PMS7003;60991;51.278;22.550;2023-04-15T05:54:53;16.00;14.50;9.00
72854;PMS7003;60991;51.278;22.550;2023-04-15T05:56:23;15.75;12.75;10.00
72854;PMS7003;60991;51.278;22.550;2023-04-15T05:57:53;17.67;15.00;11.00
72854;PMS7003;60991;51.278;22.550;2023-04-15T05:59:23;15.00;14.00;10.00
72854;PMS7003;60991;51.278;22.550;2023-04-15T06:00:54;15.50;15.50;11.50
72854;PMS7003;60991;51.278;22.550;2023-04-15T06:02:24;15.00;12.33;9.67
72854;PMS7003;60991;51.278;22.550;2023-04-15T06:03:54;21.25;15.75;10.50
72854;PMS7003;60991;51.278;22.550;2023-04-15T06:05:25;16.75;13.75;10.25
72854;PMS7003;60991;51.278;22.550;2023-04-15T06:06:55;17.00;16.75;11.25
72854;PMS7003;60991;51.278;22.550;2023-04-15T06:08:25;18.00;15.00;11.00
72854;PMS7003;60991;51.278;22.550;2023-04-15T06:09:55;17.25;16.75;11.00
72854;PMS7003;60991;51.278;22.550;2023-04-15T06:11:26;16.33;16.00;11.00
72854;PMS7003;60991;51.278;22.550;2023-04-15T06:12:56;17.75;16.00;10.00
72854;PMS7003;60991;51.278;22.550;2023-04-15T06:14:26;15.25;14.50;10.50
72854;PMS7003;60991;51.278;22.550;2023-04-15T06:15:56;13.75;11.50;9.50
72854;PMS7003;60991;51.278;22.550;2023-04-15T06:17:27;15.50;14.00;10.00
72854;PMS7003;60991;51.278;22.550;2023-04-15T06:18:57;16.00;15.00;10.00
72854;PMS7003;60991;51.278;22.550;2023-04-15T06:20:27;19.25;15.00;9.50
72854;PMS7003;60991;51.278;22.550;2023-04-15T06:21:57;15.00;11.50;9.00
72854;PMS7003;60991;51.278;22.550;2023-04-15T06:23:28;13.50;12.50;9.25
72854;PMS7003;60991;51.278;22.550;2023-04-15T06:24:58;13.75;11.50;8.50
72854;PMS7003;60991;51.278;22.550;2023-04-15T06:26:28;12.00;11.00;9.00
72854;PMS7003;60991;51.278;22.550;2023-04-15T06:27:59;17.25;14.75;9.00
72854;PMS7003;60991;51.278;22.550;2023-04-15T06:29:29;16.00;11.33;9.67
72854;PMS7003;60991;51.278;22.550;2023-04-15T06:30:59;13.00;11.00;8.50
72854;PMS7003;60991;51.278;22.550;2023-04-15T06:32:29;11.75;11.75;9.00
72854;PMS7003;60991;51.278;22.550;2023-04-15T06:34:00;15.00;14.25;9.25
72854;PMS7003;60991;51.278;22.550;2023-04-15T06:35:31;10.50;10.00;8.75
72854;PMS7003;60991;51.278;22.550;2023-04-15T06:37:01;11.33;9.67;7.33
72854;PMS7003;60991;51.278;22.550;2023-04-15T06:38:31;14.67;10.00;9.00
72854;PMS7003;60991;51.278;22.550;2023-04-15T06:40:01;16.00;15.00;9.75
72854;PMS7003;60991;51.278;22.550;2023-04-15T06:41:32;15.75;13.75;11.50
72854;PMS7003;60991;51.278;22.550;2023-04-15T06:43:02;12.75;10.00;8.50
72854;PMS7003;60991;51.278;22.550;2023-04-15T06:44:32;13.25;9.50;7.25
72854;PMS7003;60991;51.278;22.550;2023-04-15T06:46:02;11.00;9.75;9.00
72854;PMS7003;60991;51.278;22.550;2023-04-15T06:47:33;14.75;14.50;9.25
72854;PMS7003;60991;51.278;22.550;2023-04-15T06:49:03;13.33;11.33;9.33
72854;PMS7003;60991;51.278;22.550;2023-04-15T06:50:33;17.00;14.00;9.67
72854;PMS7003;60991;51.278;22.550;2023-04-15T06:52:03;15.75;14.75;10.25
72854;PMS7003;60991;51.278;22.550;2023-04-15T06:53:33;21.00;17.25;10.50
72854;PMS7003;60991;51.278;22.550;2023-04-15T06:55:04;15.00;15.00;10.25
72854;PMS7003;60991;51.278;22.550;2023-04-15T06:56:34;9.00;9.00;9.00
72854;PMS7003;60991;51.278;22.550;2023-04-15T06:58:05;10.33;10.33;9.00
72854;PMS7003;60991;51.278;22.550;2023-04-15T06:59:35;20.67;16.33;10.00
72854;PMS7003;60991;51.278;22.550;2023-04-15T07:01:05;15.00;14.75;10.75
72854;PMS7003;60991;51.278;22.550;2023-04-15T07:02:35;20.00;18.00;13.50
72854;PMS7003;60991;51.278;22.550;2023-04-15T07:04:05;21.33;17.33;9.67
72854;PMS7003;60991;51.278;22.550;2023-04-15T07:05:36;15.50;15.25;11.00
72854;PMS7003;60991;51.278;22.550;2023-04-15T07:07:06;16.50;14.00;10.50
72854;PMS7003;60991;51.278;22.550;2023-04-15T07:08:36;17.33;16.00;11.33
72854;PMS7003;60991;51.278;22.550;2023-04-15T07:10:07;14.33;14.33;10.00
72854;PMS7003;60991;51.278;22.550;2023-04-15T07:11:37;16.75;14.75;9.50
72854;PMS7003;60991;51.278;22.550;2023-04-15T07:13:07;15.67;14.00;10.33
72854;PMS7003;60991;51.278;22.550;2023-04-15T07:14:38;15.00;11.00;9.00
72854;PMS7003;60991;51.278;22.550;2023-04-15T07:16:08;15.00;14.00;11.00
72854;PMS7003;60991;51.278;22.550;2023-04-15T07:17:39;15.75;11.25;9.25
72854;PMS7003;60991;51.278;22.550;2023-04-15T07:19:10;15.75;13.75;9.75
72854;PMS7003;60991;51.278;22.550;2023-04-15T07:20:41;15.00;12.00;9.00
72854;PMS7003;60991;51.278;22.550;2023-04-15T07:22:11;16.75;13.50;11.50
72854;PMS7003;60991;51.278;22.550;2023-04-15T07:23:42;19.50;16.50;12.75
72854;PMS7003;60991;51.278;22.550;2023-04-15T07:25:12;20.00;17.50;12.75
72854;PMS7003;60991;51.278;22.550;2023-04-15T07:26:42;18.50;18.25;13.25
72854;PMS7003;60991;51.278;22.550;2023-04-15T07:28:13;19.75;15.50;10.75
72854;PMS7003;60991;51.278;22.550;2023-04-15T07:29:43;17.50;16.75;12.25
72854;PMS7003;60991;51.278;22.550;2023-04-15T07:31:13;19.75;18.25;14.50
72854;PMS7003;60991;51.278;22.550;2023-04-15T07:32:43;18.50;16.00;13.00
72854;PMS7003;60991;51.278;22.550;2023-04-15T07:34:14;17.50;15.75;12.25
72854;PMS7003;60991;51.278;22.550;2023-04-15T07:35:44;19.25;15.00;10.75
72854;PMS7003;60991;51.278;22.550;2023-04-15T07:37:14;10.50;10.50;8.50
72854;PMS7003;60991;51.278;22.550;2023-04-15T07:38:44;13.25;12.00;9.00
72854;PMS7003;60991;51.278;22.550;2023-04-15T07:40:15;11.33;10.00;9.00
72854;PMS7003;60991;51.278;22.550;2023-04-15T07:41:45;12.00;9.00;6.25
72854;PMS7003;60991;51.278;22.550;2023-04-15T07:43:15;5.25;5.25;4.50
72854;PMS7003;60991;51.278;22.550;2023-04-15T07:44:45;8.50;8.00;5.50
72854;PMS7003;60991;51.278;22.550;2023-04-15T07:46:16;8.00;8.00;6.25
72854;PMS7003;60991;51.278;22.550;2023-04-15T07:47:46;6.75;6.75;5.00
72854;PMS7003;60991;51.278;22.550;2023-04-15T07:49:16;8.00;8.00;5.00
72854;PMS7003;60991;51.278;22.550;2023-04-15T07:50:46;8.75;6.75;3.75
72854;PMS7003;60991;51.278;22.550;2023-04-15T07:52:17;5.25;5.25;5.00
72854;PMS7003;60991;51.278;22.550;2023-04-15T07:53:48;5.50;5.50;5.00
72854;PMS7003;60991;51.278;22.550;2023-04-15T07:55:18;8.75;6.50;5.25
72854;PMS7003;60991;51.278;22.550;2023-04-15T07:56:48;6.50;5.25;4.00
72854;PMS7003;60991;51.278;22.550;2023-04-15T07:58:19;4.00;3.50;3.25
72854;PMS7003;60991;51.278;22.550;2023-04-15T07:59:49;6.25;5.25;4.25
72854;PMS7003;60991;51.278;22.550;2023-04-15T08:01:19;10.00;5.67;5.67
72854;PMS7003;60991;51.278;22.550;2023-04-15T08:02:49;8.00;6.25;5.00
72854;PMS7003;60991;51.278;22.550;2023-04-15T08:04:20;5.00;3.75;3.00
72854;PMS7003;60991;51.278;22.550;2023-04-15T08:05:50;4.25;4.25;3.25
72854;PMS7003;60991;51.278;22.550;2023-04-15T08:07:20;5.00;5.00;3.33
72854;PMS7003;60991;51.278;22.550;2023-04-15T08:08:50;4.50;1.00;1.00
72854;PMS7003;60991;51.278;22.550;2023-04-15T08:10:20;1.00;1.00;1.00
72854;PMS7003;60991;51.278;22.550;2023-04-15T08:11:51;3.00;1.00;1.00
72854;PMS7003;60991;51.278;22.550;2023-04-15T08:13:22;1.50;1.50;1.50
72854;PMS7003;60991;51.278;22.550;2023-04-15T08:14:52;3.00;1.00;1.00
72854;PMS7003;60991;51.278;22.550;2023-04-15T08:16:25;1.75;1.75;1.75
72854;PMS7003;60991;51.278;22.550;2023-04-15T08:17:55;1.75;1.75;1.50
72854;PMS7003;60991;51.278;22.550;2023-04-15T08:19:25;3.00;2.75;2.25
72854;PMS7003;60991;51.278;22.550;2023-04-15T08:20:55;5.50;2.00;1.75
72854;PMS7003;60991;51.278;22.550;2023-04-15T08:22:26;2.00;2.00;2.00
72854;PMS7003;60991;51.278;22.550;2023-04-15T08:23:56;2.00;2.00;2.00